sensor_id;sensor_type;location;lat;lon;timestamp;P1;durP1;ratioP1;P2;durP2;ratioP2
73909;SDS011;62245;48.070;7.874;2024-03-23T00:53:57;3.63;;;1.33;;
73909;SDS011;62245;48.070;7.874;2024-03-23T00:56:23;5.47;;;1.67;;
73909;SDS011;62245;48.070;7.874;2024-03-23T00:58:49;4.22;;;1.25;;
73909;SDS011;62245;48.070;7.874;2024-03-23T01:01:15;4.68;;;1.40;;
73909;SDS011;62245;48.070;7.874;2024-03-23T01:03:40;3.60;;;1.55;;
73909;SDS011;62245;48.070;7.874;2024-03-23T01:06:05;4.50;;;1.70;;
73909;SDS011;62245;48.070;7.874;2024-03-23T01:08:31;3.50;;;1.83;;
73909;SDS011;62245;48.070;7.874;2024-03-23T01:10:56;4.47;;;1.83;;
73909;SDS011;62245;48.070;7.874;2024-03-23T01:13:22;4.03;;;1.60;;
73909;SDS011;62245;48.070;7.874;2024-03-23T01:15:51;4.55;;;1.33;;
73909;SDS011;62245;48.070;7.874;2024-03-23T01:18:19;3.50;;;1.52;;
73909;SDS011;62245;48.070;7.874;2024-03-23T01:20:45;3.33;;;1.52;;
73909;SDS011;62245;48.070;7.874;2024-03-23T01:23:10;3.38;;;1.50;;
73909;SDS011;62245;48.070;7.874;2024-03-23T01:25:36;5.22;;;1.70;;
73909;SDS011;62245;48.070;7.874;2024-03-23T01:28:01;3.22;;;1.50;;
73909;SDS011;62245;48.070;7.874;2024-03-23T01:30:27;3.78;;;1.40;;
73909;SDS011;62245;48.070;7.874;2024-03-23T01:32:52;3.65;;;1.52;;
73909;SDS011;62245;48.070;7.874;2024-03-23T01:35:17;4.90;;;1.73;;
73909;SDS011;62245;48.070;7.874;2024-03-23T01:37:42;4.53;;;1.50;;
73909;SDS011;62245;48.070;7.874;2024-03-23T01:40:08;3.53;;;1.60;;
73909;SDS011;62245;48.070;7.874;2024-03-23T01:42:33;3.80;;;1.60;;
73909;SDS011;62245;48.070;7.874;2024-03-23T01:44:59;3.20;;;1.40;;
73909;SDS011;62245;48.070;7.874;2024-03-23T01:47:24;4.27;;;1.30;;
73909;SDS011;62245;48.070;7.874;2024-03-23T01:49:49;5.33;;;1.80;;
73909;SDS011;62245;48.070;7.874;2024-03-23T01:52:15;3.42;;;1.67;;
73909;SDS011;62245;48.070;7.874;2024-03-23T01:54:40;3.43;;;1.40;;
73909;SDS011;62245;48.070;7.874;2024-03-23T01:57:06;3.35;;;1.50;;
73909;SDS011;62245;48.070;7.874;2024-03-23T01:59:31;4.38;;;1.65;;
73909;SDS011;62245;48.070;7.874;2024-03-23T02:01:57;3.63;;;1.52;;
73909;SDS011;62245;48.070;7.874;2024-03-23T02:04:22;5.07;;;1.77;;
73909;SDS011;62245;48.070;7.874;2024-03-23T02:06:47;4.45;;;1.67;;
73909;SDS011;62245;48.070;7.874;2024-03-23T02:09:13;3.65;;;1.55;;
73909;SDS011;62245;48.070;7.874;2024-03-23T02:11:38;4.13;;;1.75;;
73909;SDS011;62245;48.070;7.874;2024-03-23T02:14:04;5.43;;;1.70;;
73909;SDS011;62245;48.070;7.874;2024-03-23T02:16:29;3.63;;;1.50;;
73909;SDS011;62245;48.070;7.874;2024-03-23T02:18:54;4.80;;;1.77;;
73909;SDS011;62245;48.070;7.874;2024-03-23T02:21:20;3.30;;;1.42;;
73909;SDS011;62245;48.070;7.874;2024-03-23T02:23:51;3.97;;;1.67;;
73909;SDS011;62245;48.070;7.874;2024-03-23T02:26:17;5.00;;;1.80;;
73909;SDS011;62245;48.070;7.874;2024-03-23T02:28:42;6.17;;;1.97;;
73909;SDS011;62245;48.070;7.874;2024-03-23T02:31:07;4.10;;;1.60;;
73909;SDS011;62245;48.070;7.874;2024-03-23T02:33:32;5.33;;;1.90;;
73909;SDS011;62245;48.070;7.874;2024-03-23T02:35:59;5.63;;;1.63;;
73909;SDS011;62245;48.070;7.874;2024-03-23T02:38:24;4.70;;;1.90;;
73909;SDS011;62245;48.070;7.874;2024-03-23T02:40:50;4.73;;;1.77;;
73909;SDS011;62245;48.070;7.874;2024-03-23T02:43:15;4.70;;;1.83;;
73909;SDS011;62245;48.070;7.874;2024-03-23T02:45:40;3.50;;;1.70;;
73909;SDS011;62245;48.070;7.874;2024-03-23T02:48:05;5.07;;;2.00;;
73909;SDS011;62245;48.070;7.874;2024-03-23T02:50:31;5.32;;;1.85;;
73909;SDS011;62245;48.070;7.874;2024-03-23T02:52:56;4.13;;;2.10;;
73909;SDS011;62245;48.070;7.874;2024-03-23T02:55:21;5.83;;;1.90;;
73909;SDS011;62245;48.070;7.874;2024-03-23T02:57:47;7.30;;;1.98;;
73909;SDS011;62245;48.070;7.874;2024-03-23T03:00:12;6.00;;;2.13;;
73909;SDS011;62245;48.070;7.874;2024-03-23T03:02:38;5.47;;;2.17;;
73909;SDS011;62245;48.070;7.874;2024-03-23T03:05:03;5.00;;;1.83;;
73909;SDS011;62245;48.070;7.874;2024-03-23T03:07:30;4.65;;;1.65;;
73909;SDS011;62245;48.070;7.874;2024-03-23T03:09:56;5.45;;;1.90;;
73909;SDS011;62245;48.070;7.874;2024-03-23T03:12:21;4.70;;;2.03;;
73909;SDS011;62245;48.070;7.874;2024-03-23T03:14:46;4.70;;;1.60;;
73909;SDS011;62245;48.070;7.874;2024-03-23T03:17:12;6.22;;;2.10;;
73909;SDS011;62245;48.070;7.874;2024-03-23T03:19:38;5.53;;;2.20;;
73909;SDS011;62245;48.070;7.874;2024-03-23T03:22:03;5.17;;;2.00;;
73909;SDS011;62245;48.070;7.874;2024-03-23T03:24:29;5.20;;;1.85;;
73909;SDS011;62245;48.070;7.874;2024-03-23T03:26:54;6.43;;;1.67;;
73909;SDS011;62245;48.070;7.874;2024-03-23T03:29:20;5.23;;;1.90;;
73909;SDS011;62245;48.070;7.874;2024-03-23T03:31:45;5.27;;;2.00;;
73909;SDS011;62245;48.070;7.874;2024-03-23T03:34:11;4.88;;;2.20;;
73909;SDS011;62245;48.070;7.874;2024-03-23T03:36:36;4.50;;;2.00;;
73909;SDS011;62245;48.070;7.874;2024-03-23T03:39:02;5.20;;;2.13;;
73909;SDS011;62245;48.070;7.874;2024-03-23T03:41:31;6.72;;;2.28;;
73909;SDS011;62245;48.070;7.874;2024-03-23T03:43:56;5.45;;;2.10;;
73909;SDS011;62245;48.070;7.874;2024-03-23T03:46:26;4.22;;;2.08;;
73909;SDS011;62245;48.070;7.874;2024-03-23T03:48:51;6.37;;;2.00;;
73909;SDS011;62245;48.070;7.874;2024-03-23T03:51:16;7.53;;;2.50;;
73909;SDS011;62245;48.070;7.874;2024-03-23T03:53:42;4.87;;;2.07;;
73909;SDS011;62245;48.070;7.874;2024-03-23T03:56:07;5.77;;;2.20;;
73909;SDS011;62245;48.070;7.874;2024-03-23T03:58:32;6.33;;;1.97;;
73909;SDS011;62245;48.070;7.874;2024-03-23T04:00:57;5.63;;;2.13;;
73909;SDS011;62245;48.070;7.874;2024-03-23T04:03:23;4.43;;;1.70;;
73909;SDS011;62245;48.070;7.874;2024-03-23T04:05:54;5.97;;;2.10;;
73909;SDS011;62245;48.070;7.874;2024-03-23T04:08:20;7.88;;;2.17;;
73909;SDS011;62245;48.070;7.874;2024-03-23T04:10:45;5.50;;;2.13;;
73909;SDS011;62245;48.070;7.874;2024-03-23T04:13:11;4.53;;;2.00;;
73909;SDS011;62245;48.070;7.874;2024-03-23T04:15:37;9.57;;;2.33;;
73909;SDS011;62245;48.070;7.874;2024-03-23T04:18:03;6.80;;;2.28;;
73909;SDS011;62245;48.070;7.874;2024-03-23T04:20:28;6.30;;;2.28;;
73909;SDS011;62245;48.070;7.874;2024-03-23T04:22:54;4.73;;;2.47;;
73909;SDS011;62245;48.070;7.874;2024-03-23T04:25:19;5.35;;;2.20;;
73909;SDS011;62245;48.070;7.874;2024-03-23T04:27:44;4.03;;;1.80;;
73909;SDS011;62245;48.070;7.874;2024-03-23T04:30:11;5.93;;;2.10;;
73909;SDS011;62245;48.070;7.874;2024-03-23T04:32:37;7.22;;;2.30;;
73909;SDS011;62245;48.070;7.874;2024-03-23T04:35:02;7.40;;;2.25;;
73909;SDS011;62245;48.070;7.874;2024-03-23T04:37:31;5.97;;;2.22;;
73909;SDS011;62245;48.070;7.874;2024-03-23T04:39:59;5.72;;;2.20;;
73909;SDS011;62245;48.070;7.874;2024-03-23T04:44:53;5.38;;;2.65;;
73909;SDS011;62245;48.070;7.874;2024-03-23T04:47:19;5.30;;;2.40;;
73909;SDS011;62245;48.070;7.874;2024-03-23T04:49:44;7.13;;;2.40;;
73909;SDS011;62245;48.070;7.874;2024-03-23T04:52:09;6.57;;;2.30;;
73909;SDS011;62245;48.070;7.874;2024-03-23T04:54:35;6.73;;;2.63;;
73909;SDS011;62245;48.070;7.874;2024-03-23T04:57:00;8.67;;;2.60;;
73909;SDS011;62245;48.070;7.874;2024-03-23T04:59:25;6.25;;;2.65;;
73909;SDS011;62245;48.070;7.874;2024-03-23T05:01:51;5.87;;;2.43;;
73909;SDS011;62245;48.070;7.874;2024-03-23T05:04:16;5.80;;;2.73;;
73909;SDS011;62245;48.070;7.874;2024-03-23T05:06:41;6.50;;;2.80;;
73909;SDS011;62245;48.070;7.874;2024-03-23T05:09:06;6.47;;;2.97;;
73909;SDS011;62245;48.070;7.874;2024-03-23T05:11:33;9.20;;;3.20;;
73909;SDS011;62245;48.070;7.874;2024-03-23T05:13:59;6.97;;;2.97;;
73909;SDS011;62245;48.070;7.874;2024-03-23T05:16:24;6.07;;;2.70;;
73909;SDS011;62245;48.070;7.874;2024-03-23T05:18:51;6.32;;;2.67;;
73909;SDS011;62245;48.070;7.874;2024-03-23T05:21:16;6.40;;;3.40;;
73909;SDS011;62245;48.070;7.874;2024-03-23T05:23:42;7.07;;;3.50;;
73909;SDS011;62245;48.070;7.874;2024-03-23T05:26:08;8.48;;;3.80;;
73909;SDS011;62245;48.070;7.874;2024-03-23T05:28:34;7.55;;;3.90;;
73909;SDS011;62245;48.070;7.874;2024-03-23T05:30:59;7.40;;;3.60;;
73909;SDS011;62245;48.070;7.874;2024-03-23T05:33:25;7.10;;;3.90;;
73909;SDS011;62245;48.070;7.874;2024-03-23T05:35:59;9.23;;;5.17;;
73909;SDS011;62245;48.070;7.874;2024-03-23T05:38:25;9.30;;;4.38;;
73909;SDS011;62245;48.070;7.874;2024-03-23T05:40:59;8.52;;;4.15;;
73909;SDS011;62245;48.070;7.874;2024-03-23T05:43:25;10.60;;;5.05;;
73909;SDS011;62245;48.070;7.874;2024-03-23T05:48:20;9.05;;;4.95;;
73909;SDS011;62245;48.070;7.874;2024-03-23T05:50:45;10.15;;;5.13;;
73909;SDS011;62245;48.070;7.874;2024-03-23T05:53:11;9.38;;;4.75;;
73909;SDS011;62245;48.070;7.874;2024-03-23T05:55:38;9.80;;;5.45;;
73909;SDS011;62245;48.070;7.874;2024-03-23T05:58:03;9.07;;;5.13;;
73909;SDS011;62245;48.070;7.874;2024-03-23T06:00:28;8.68;;;4.85;;
73909;SDS011;62245;48.070;7.874;2024-03-23T06:02:54;8.93;;;4.83;;
73909;SDS011;62245;48.070;7.874;2024-03-23T06:05:19;11.20;;;5.43;;
73909;SDS011;62245;48.070;7.874;2024-03-23T06:07:45;9.80;;;5.30;;
73909;SDS011;62245;48.070;7.874;2024-03-23T06:10:10;8.23;;;4.00;;
73909;SDS011;62245;48.070;7.874;2024-03-23T06:12:35;6.00;;;2.80;;
73909;SDS011;62245;48.070;7.874;2024-03-23T06:15:00;5.22;;;1.55;;
73909;SDS011;62245;48.070;7.874;2024-03-23T06:17:26;7.72;;;3.35;;
73909;SDS011;62245;48.070;7.874;2024-03-23T06:19:52;5.43;;;1.80;;
73909;SDS011;62245;48.070;7.874;2024-03-23T06:22:17;6.40;;;2.57;;
73909;SDS011;62245;48.070;7.874;2024-03-23T06:24:42;4.37;;;1.90;;
73909;SDS011;62245;48.070;7.874;2024-03-23T06:27:07;2.63;;;1.07;;
73909;SDS011;62245;48.070;7.874;2024-03-23T06:29:33;2.55;;;1.02;;
73909;SDS011;62245;48.070;7.874;2024-03-23T06:31:58;1.77;;;0.83;;
73909;SDS011;62245;48.070;7.874;2024-03-23T06:34:24;1.80;;;0.80;;
73909;SDS011;62245;48.070;7.874;2024-03-23T06:36:50;1.60;;;0.70;;
73909;SDS011;62245;48.070;7.874;2024-03-23T06:39:15;1.33;;;0.80;;
73909;SDS011;62245;48.070;7.874;2024-03-23T06:41:54;1.65;;;0.75;;
73909;SDS011;62245;48.070;7.874;2024-03-23T06:44:20;6.22;;;1.88;;
73909;SDS011;62245;48.070;7.874;2024-03-23T06:46:46;4.93;;;1.50;;
73909;SDS011;62245;48.070;7.874;2024-03-23T06:49:12;1.38;;;0.70;;
73909;SDS011;62245;48.070;7.874;2024-03-23T06:51:37;16.02;;;6.55;;
73909;SDS011;62245;48.070;7.874;2024-03-23T06:54:04;2.38;;;0.90;;
73909;SDS011;62245;48.070;7.874;2024-03-23T06:56:30;1.05;;;0.50;;
73909;SDS011;62245;48.070;7.874;2024-03-23T06:58:55;1.52;;;0.50;;
73909;SDS011;62245;48.070;7.874;2024-03-23T07:01:21;1.33;;;0.60;;
73909;SDS011;62245;48.070;7.874;2024-03-23T07:03:47;1.20;;;0.60;;
73909;SDS011;62245;48.070;7.874;2024-03-23T07:06:12;0.63;;;0.30;;
73909;SDS011;62245;48.070;7.874;2024-03-23T07:08:37;1.50;;;0.50;;
73909;SDS011;62245;48.070;7.874;2024-03-23T07:11:02;0.70;;;0.20;;
73909;SDS011;62245;48.070;7.874;2024-03-23T07:13:28;0.93;;;0.40;;
73909;SDS011;62245;48.070;7.874;2024-03-23T07:15:53;1.23;;;0.47;;
73909;SDS011;62245;48.070;7.874;2024-03-23T07:18:20;0.30;;;0.30;;
73909;SDS011;62245;48.070;7.874;2024-03-23T07:20:55;1.50;;;0.50;;
73909;SDS011;62245;48.070;7.874;2024-03-23T07:23:21;3.30;;;1.13;;
73909;SDS011;62245;48.070;7.874;2024-03-23T07:26:00;2.35;;;1.13;;
73909;SDS011;62245;48.070;7.874;2024-03-23T07:28:27;2.55;;;0.85;;
73909;SDS011;62245;48.070;7.874;2024-03-23T07:33:32;1.73;;;0.60;;
73909;SDS011;62245;48.070;7.874;2024-03-23T07:35:58;1.90;;;0.90;;
73909;SDS011;62245;48.070;7.874;2024-03-23T07:41:02;1.10;;;0.43;;
73909;SDS011;62245;48.070;7.874;2024-03-23T07:43:34;1.50;;;0.85;;
73909;SDS011;62245;48.070;7.874;2024-03-23T07:46:00;1.58;;;0.70;;
73909;SDS011;62245;48.070;7.874;2024-03-23T07:48:26;1.42;;;0.60;;
73909;SDS011;62245;48.070;7.874;2024-03-23T07:51:02;4.07;;;1.52;;
73909;SDS011;62245;48.070;7.874;2024-03-23T07:53:29;4.53;;;1.08;;
73909;SDS011;62245;48.070;7.874;2024-03-23T07:55:55;2.50;;;0.63;;
73909;SDS011;62245;48.070;7.874;2024-03-23T07:58:22;2.75;;;1.15;;
73909;SDS011;62245;48.070;7.874;2024-03-23T08:00:48;1.95;;;0.60;;
73909;SDS011;62245;48.070;7.874;2024-03-23T08:03:13;3.00;;;1.10;;
73909;SDS011;62245;48.070;7.874;2024-03-23T08:05:38;4.20;;;1.10;;
73909;SDS011;62245;48.070;7.874;2024-03-23T08:08:04;3.20;;;0.80;;
73909;SDS011;62245;48.070;7.874;2024-03-23T08:10:29;2.67;;;0.82;;
73909;SDS011;62245;48.070;7.874;2024-03-23T08:12:54;4.13;;;0.90;;
73909;SDS011;62245;48.070;7.874;2024-03-23T08:15:20;4.20;;;0.87;;
73909;SDS011;62245;48.070;7.874;2024-03-23T08:17:45;5.53;;;1.00;;
73909;SDS011;62245;48.070;7.874;2024-03-23T08:20:10;3.53;;;1.10;;
73909;SDS011;62245;48.070;7.874;2024-03-23T08:22:36;4.68;;;1.50;;
73909;SDS011;62245;48.070;7.874;2024-03-23T08:25:01;4.40;;;1.13;;
73909;SDS011;62245;48.070;7.874;2024-03-23T08:27:27;4.38;;;1.30;;
73909;SDS011;62245;48.070;7.874;2024-03-23T08:29:52;1.63;;;0.77;;
73909;SDS011;62245;48.070;7.874;2024-03-23T08:32:17;3.57;;;1.10;;
73909;SDS011;62245;48.070;7.874;2024-03-23T08:34:43;3.63;;;1.02;;
73909;SDS011;62245;48.070;7.874;2024-03-23T08:37:08;3.77;;;1.10;;
73909;SDS011;62245;48.070;7.874;2024-03-23T08:39:33;5.23;;;1.40;;
73909;SDS011;62245;48.070;7.874;2024-03-23T08:41:59;6.78;;;2.10;;
73909;SDS011;62245;48.070;7.874;2024-03-23T08:44:24;7.23;;;2.10;;
73909;SDS011;62245;48.070;7.874;2024-03-23T08:46:49;6.67;;;2.10;;
73909;SDS011;62245;48.070;7.874;2024-03-23T08:49:14;7.33;;;1.70;;
73909;SDS011;62245;48.070;7.874;2024-03-23T08:51:40;5.80;;;1.90;;
73909;SDS011;62245;48.070;7.874;2024-03-23T08:54:05;9.33;;;2.00;;
73909;SDS011;62245;48.070;7.874;2024-03-23T08:56:30;8.73;;;2.00;;
73909;SDS011;62245;48.070;7.874;2024-03-23T08:58:55;5.97;;;2.20;;
73909;SDS011;62245;48.070;7.874;2024-03-23T09:01:21;9.10;;;2.13;;
73909;SDS011;62245;48.070;7.874;2024-03-23T09:03:46;5.37;;;1.80;;
73909;SDS011;62245;48.070;7.874;2024-03-23T09:06:12;6.27;;;1.93;;
73909;SDS011;62245;48.070;7.874;2024-03-23T09:08:40;7.22;;;2.08;;
73909;SDS011;62245;48.070;7.874;2024-03-23T09:11:14;9.73;;;2.80;;
73909;SDS011;62245;48.070;7.874;2024-03-23T09:13:40;8.15;;;2.10;;
73909;SDS011;62245;48.070;7.874;2024-03-23T09:16:06;6.53;;;1.85;;
73909;SDS011;62245;48.070;7.874;2024-03-23T09:18:32;6.95;;;1.73;;
73909;SDS011;62245;48.070;7.874;2024-03-23T09:21:00;6.45;;;1.90;;
73909;SDS011;62245;48.070;7.874;2024-03-23T09:23:25;6.87;;;1.77;;
73909;SDS011;62245;48.070;7.874;2024-03-23T09:25:50;11.13;;;3.47;;
73909;SDS011;62245;48.070;7.874;2024-03-23T09:28:15;7.30;;;2.30;;
73909;SDS011;62245;48.070;7.874;2024-03-23T09:30:41;5.93;;;2.07;;
73909;SDS011;62245;48.070;7.874;2024-03-23T09:33:09;6.57;;;1.70;;
73909;SDS011;62245;48.070;7.874;2024-03-23T09:35:42;7.35;;;1.67;;
73909;SDS011;62245;48.070;7.874;2024-03-23T09:38:08;9.65;;;1.73;;
73909;SDS011;62245;48.070;7.874;2024-03-23T09:40:34;9.80;;;2.83;;
73909;SDS011;62245;48.070;7.874;2024-03-23T09:43:00;13.88;;;5.78;;
73909;SDS011;62245;48.070;7.874;2024-03-23T09:45:29;15.30;;;7.00;;
73909;SDS011;62245;48.070;7.874;2024-03-23T09:47:54;9.35;;;2.58;;
73909;SDS011;62245;48.070;7.874;2024-03-23T09:50:20;8.93;;;2.53;;
73909;SDS011;62245;48.070;7.874;2024-03-23T09:52:46;7.07;;;1.67;;
73909;SDS011;62245;48.070;7.874;2024-03-23T09:55:11;13.13;;;6.00;;
73909;SDS011;62245;48.070;7.874;2024-03-23T09:57:38;6.30;;;2.10;;
73909;SDS011;62245;48.070;7.874;2024-03-23T10:00:04;6.90;;;1.90;;
73909;SDS011;62245;48.070;7.874;2024-03-23T10:02:29;6.82;;;1.70;;
73909;SDS011;62245;48.070;7.874;2024-03-23T10:04:55;17.10;;;8.77;;
73909;SDS011;62245;48.070;7.874;2024-03-23T10:07:22;19.02;;;9.15;;
73909;SDS011;62245;48.070;7.874;2024-03-23T10:09:47;8.40;;;2.28;;
73909;SDS011;62245;48.070;7.874;2024-03-23T10:12:13;5.85;;;1.25;;
73909;SDS011;62245;48.070;7.874;2024-03-23T10:14:41;5.20;;;1.42;;
73909;SDS011;62245;48.070;7.874;2024-03-23T10:17:17;5.65;;;1.60;;
73909;SDS011;62245;48.070;7.874;2024-03-23T10:19:46;6.72;;;1.48;;
73909;SDS011;62245;48.070;7.874;2024-03-23T10:22:22;4.53;;;1.33;;
73909;SDS011;62245;48.070;7.874;2024-03-23T10:24:48;6.80;;;1.58;;
73909;SDS011;62245;48.070;7.874;2024-03-23T10:27:21;8.90;;;1.40;;
73909;SDS011;62245;48.070;7.874;2024-03-23T10:29:47;6.25;;;1.30;;
73909;SDS011;62245;48.070;7.874;2024-03-23T10:32:17;8.70;;;1.70;;
73909;SDS011;62245;48.070;7.874;2024-03-23T10:34:43;6.90;;;1.90;;
73909;SDS011;62245;48.070;7.874;2024-03-23T10:40:24;4.85;;;1.25;;
73909;SDS011;62245;48.070;7.874;2024-03-23T10:42:59;2.75;;;1.00;;
73909;SDS011;62245;48.070;7.874;2024-03-23T10:45:25;3.38;;;0.90;;
73909;SDS011;62245;48.070;7.874;2024-03-23T10:47:51;2.40;;;0.70;;
73909;SDS011;62245;48.070;7.874;2024-03-23T10:50:17;4.90;;;0.80;;
73909;SDS011;62245;48.070;7.874;2024-03-23T10:52:44;2.83;;;0.75;;
73909;SDS011;62245;48.070;7.874;2024-03-23T10:55:11;1.95;;;0.80;;
73909;SDS011;62245;48.070;7.874;2024-03-23T10:57:40;3.20;;;0.88;;
73909;SDS011;62245;48.070;7.874;2024-03-23T11:00:09;1.83;;;0.73;;
73909;SDS011;62245;48.070;7.874;2024-03-23T11:02:35;4.75;;;0.90;;
73909;SDS011;62245;48.070;7.874;2024-03-23T11:05:01;3.40;;;0.97;;
73909;SDS011;62245;48.070;7.874;2024-03-23T11:09:51;2.17;;;0.60;;
73909;SDS011;62245;48.070;7.874;2024-03-23T11:14:50;4.53;;;0.90;;
73909;SDS011;62245;48.070;7.874;2024-03-23T11:17:24;3.50;;;0.80;;
73909;SDS011;62245;48.070;7.874;2024-03-23T11:20:03;3.58;;;1.08;;
73909;SDS011;62245;48.070;7.874;2024-03-23T11:25:12;3.33;;;0.90;;
73909;SDS011;62245;48.070;7.874;2024-03-23T11:27:40;6.18;;;0.93;;
73909;SDS011;62245;48.070;7.874;2024-03-23T11:30:10;4.25;;;0.80;;
73909;SDS011;62245;48.070;7.874;2024-03-23T11:32:41;3.70;;;0.80;;
73909;SDS011;62245;48.070;7.874;2024-03-23T11:35:10;3.97;;;0.82;;
73909;SDS011;62245;48.070;7.874;2024-03-23T11:38:00;4.25;;;0.80;;
73909;SDS011;62245;48.070;7.874;2024-03-23T11:40:47;2.38;;;0.57;;
73909;SDS011;62245;48.070;7.874;2024-03-23T11:43:14;3.30;;;0.80;;
73909;SDS011;62245;48.070;7.874;2024-03-23T11:45:44;3.30;;;0.80;;
73909;SDS011;62245;48.070;7.874;2024-03-23T11:48:11;4.72;;;0.90;;
73909;SDS011;62245;48.070;7.874;2024-03-23T11:50:42;3.92;;;0.85;;
73909;SDS011;62245;48.070;7.874;2024-03-23T11:55:49;6.82;;;1.20;;
73909;SDS011;62245;48.070;7.874;2024-03-23T11:58:55;3.97;;;1.10;;
73909;SDS011;62245;48.070;7.874;2024-03-23T12:01:31;3.80;;;1.08;;
73909;SDS011;62245;48.070;7.874;2024-03-23T12:04:02;2.78;;;0.98;;
73909;SDS011;62245;48.070;7.874;2024-03-23T12:06:32;3.30;;;0.98;;
73909;SDS011;62245;48.070;7.874;2024-03-23T12:09:14;3.78;;;0.88;;
73909;SDS011;62245;48.070;7.874;2024-03-23T12:11:57;4.45;;;0.77;;
73909;SDS011;62245;48.070;7.874;2024-03-23T12:14:32;4.15;;;0.90;;
73909;SDS011;62245;48.070;7.874;2024-03-23T12:17:07;2.60;;;0.88;;
73909;SDS011;62245;48.070;7.874;2024-03-23T12:19:33;2.80;;;1.02;;
73909;SDS011;62245;48.070;7.874;2024-03-23T12:21:58;1.07;;;0.60;;
73909;SDS011;62245;48.070;7.874;2024-03-23T12:24:25;3.67;;;1.00;;
73909;SDS011;62245;48.070;7.874;2024-03-23T12:26:51;3.03;;;1.10;;
73909;SDS011;62245;48.070;7.874;2024-03-23T12:29:16;2.53;;;0.80;;
73909;SDS011;62245;48.070;7.874;2024-03-23T12:31:42;2.45;;;0.90;;
73909;SDS011;62245;48.070;7.874;2024-03-23T12:34:08;4.00;;;0.90;;
73909;SDS011;62245;48.070;7.874;2024-03-23T12:36:33;2.57;;;1.00;;
73909;SDS011;62245;48.070;7.874;2024-03-23T12:38:58;2.50;;;0.60;;
73909;SDS011;62245;48.070;7.874;2024-03-23T12:41:24;3.67;;;1.00;;
73909;SDS011;62245;48.070;7.874;2024-03-23T12:43:49;3.10;;;1.00;;
73909;SDS011;62245;48.070;7.874;2024-03-23T12:46:14;3.97;;;0.90;;
73909;SDS011;62245;48.070;7.874;2024-03-23T12:48:40;3.45;;;0.90;;
73909;SDS011;62245;48.070;7.874;2024-03-23T12:51:07;4.88;;;0.90;;
73909;SDS011;62245;48.070;7.874;2024-03-23T12:53:32;3.23;;;0.97;;
73909;SDS011;62245;48.070;7.874;2024-03-23T12:55:57;3.97;;;0.90;;
73909;SDS011;62245;48.070;7.874;2024-03-23T12:58:23;3.22;;;0.77;;
73909;SDS011;62245;48.070;7.874;2024-03-23T13:00:48;6.80;;;1.08;;
73909;SDS011;62245;48.070;7.874;2024-03-23T13:03:14;4.93;;;0.90;;
73909;SDS011;62245;48.070;7.874;2024-03-23T13:05:40;4.75;;;0.80;;
73909;SDS011;62245;48.070;7.874;2024-03-23T13:08:06;3.15;;;0.80;;
73909;SDS011;62245;48.070;7.874;2024-03-23T13:10:32;3.33;;;0.70;;
73909;SDS011;62245;48.070;7.874;2024-03-23T13:12:57;4.00;;;1.10;;
73909;SDS011;62245;48.070;7.874;2024-03-23T13:15:23;5.47;;;0.90;;
73909;SDS011;62245;48.070;7.874;2024-03-23T13:17:48;5.83;;;1.10;;
73909;SDS011;62245;48.070;7.874;2024-03-23T13:20:13;6.20;;;1.13;;
73909;SDS011;62245;48.070;7.874;2024-03-23T13:22:40;4.63;;;1.30;;
73909;SDS011;62245;48.070;7.874;2024-03-23T13:25:05;4.53;;;1.33;;
73909;SDS011;62245;48.070;7.874;2024-03-23T13:27:31;3.72;;;1.17;;
73909;SDS011;62245;48.070;7.874;2024-03-23T13:29:56;4.43;;;1.00;;
73909;SDS011;62245;48.070;7.874;2024-03-23T13:32:22;3.78;;;0.85;;
73909;SDS011;62245;48.070;7.874;2024-03-23T13:34:47;3.90;;;0.90;;
73909;SDS011;62245;48.070;7.874;2024-03-23T13:37:15;5.70;;;0.90;;
73909;SDS011;62245;48.070;7.874;2024-03-23T13:39:41;4.90;;;1.17;;
73909;SDS011;62245;48.070;7.874;2024-03-23T13:42:07;5.90;;;1.08;;
73909;SDS011;62245;48.070;7.874;2024-03-23T13:44:34;5.45;;;1.13;;
73909;SDS011;62245;48.070;7.874;2024-03-23T13:46:59;5.80;;;1.05;;
73909;SDS011;62245;48.070;7.874;2024-03-23T13:51:55;5.95;;;1.00;;
73909;SDS011;62245;48.070;7.874;2024-03-23T13:54:22;3.65;;;0.85;;
73909;SDS011;62245;48.070;7.874;2024-03-23T13:56:49;5.60;;;1.10;;
73909;SDS011;62245;48.070;7.874;2024-03-23T13:59:15;6.55;;;1.08;;
73909;SDS011;62245;48.070;7.874;2024-03-23T14:01:40;5.20;;;1.00;;
73909;SDS011;62245;48.070;7.874;2024-03-23T14:04:05;5.90;;;1.47;;
73909;SDS011;62245;48.070;7.874;2024-03-23T14:06:31;3.78;;;0.90;;
73909;SDS011;62245;48.070;7.874;2024-03-23T14:08:57;6.10;;;1.52;;
73909;SDS011;62245;48.070;7.874;2024-03-23T14:11:23;4.40;;;0.85;;
73909;SDS011;62245;48.070;7.874;2024-03-23T14:13:50;6.65;;;1.13;;
73909;SDS011;62245;48.070;7.874;2024-03-23T14:16:16;3.08;;;1.02;;
73909;SDS011;62245;48.070;7.874;2024-03-23T14:18:41;5.97;;;1.10;;
73909;SDS011;62245;48.070;7.874;2024-03-23T14:21:06;4.97;;;0.97;;
73909;SDS011;62245;48.070;7.874;2024-03-23T14:23:32;5.55;;;0.98;;
73909;SDS011;62245;48.070;7.874;2024-03-23T14:26:00;3.90;;;0.98;;
73909;SDS011;62245;48.070;7.874;2024-03-23T14:28:25;4.93;;;1.00;;
73909;SDS011;62245;48.070;7.874;2024-03-23T14:30:51;3.47;;;0.88;;
73909;SDS011;62245;48.070;7.874;2024-03-23T14:33:17;5.78;;;1.00;;
73909;SDS011;62245;48.070;7.874;2024-03-23T14:35:43;3.25;;;0.60;;
73909;SDS011;62245;48.070;7.874;2024-03-23T14:38:08;3.17;;;0.70;;
73909;SDS011;62245;48.070;7.874;2024-03-23T14:40:34;3.43;;;0.73;;
73909;SDS011;62245;48.070;7.874;2024-03-23T14:42:59;4.45;;;0.70;;
73909;SDS011;62245;48.070;7.874;2024-03-23T14:45:24;4.97;;;0.95;;
73909;SDS011;62245;48.070;7.874;2024-03-23T14:47:51;2.38;;;0.70;;
73909;SDS011;62245;48.070;7.874;2024-03-23T14:50:16;3.38;;;0.85;;
73909;SDS011;62245;48.070;7.874;2024-03-23T14:52:45;3.58;;;0.70;;
73909;SDS011;62245;48.070;7.874;2024-03-23T14:55:11;7.13;;;1.48;;
73909;SDS011;62245;48.070;7.874;2024-03-23T14:57:37;2.92;;;0.70;;
73909;SDS011;62245;48.070;7.874;2024-03-23T15:00:05;2.47;;;0.80;;
73909;SDS011;62245;48.070;7.874;2024-03-23T15:02:38;4.60;;;0.88;;
73909;SDS011;62245;48.070;7.874;2024-03-23T15:05:04;2.00;;;0.63;;
73909;SDS011;62245;48.070;7.874;2024-03-23T15:07:31;3.03;;;0.70;;
73909;SDS011;62245;48.070;7.874;2024-03-23T15:09:56;9.25;;;2.78;;
73909;SDS011;62245;48.070;7.874;2024-03-23T15:12:21;4.32;;;1.00;;
73909;SDS011;62245;48.070;7.874;2024-03-23T15:14:47;1.50;;;0.60;;
73909;SDS011;62245;48.070;7.874;2024-03-23T15:17:12;1.98;;;0.70;;
73909;SDS011;62245;48.070;7.874;2024-03-23T15:19:38;1.52;;;0.40;;
73909;SDS011;62245;48.070;7.874;2024-03-23T15:22:03;3.80;;;0.57;;
73909;SDS011;62245;48.070;7.874;2024-03-23T15:24:29;2.13;;;0.63;;
73909;SDS011;62245;48.070;7.874;2024-03-23T15:26:54;4.83;;;1.50;;
73909;SDS011;62245;48.070;7.874;2024-03-23T15:29:20;5.03;;;1.20;;
73909;SDS011;62245;48.070;7.874;2024-03-23T15:31:47;6.13;;;1.10;;
73909;SDS011;62245;48.070;7.874;2024-03-23T15:34:15;3.45;;;0.90;;
73909;SDS011;62245;48.070;7.874;2024-03-23T15:36:40;1.10;;;0.63;;
73909;SDS011;62245;48.070;7.874;2024-03-23T15:39:05;6.67;;;2.03;;
73909;SDS011;62245;48.070;7.874;2024-03-23T15:41:34;5.03;;;1.33;;
73909;SDS011;62245;48.070;7.874;2024-03-23T15:44:00;4.50;;;1.17;;
73909;SDS011;62245;48.070;7.874;2024-03-23T15:46:26;4.57;;;1.35;;
73909;SDS011;62245;48.070;7.874;2024-03-23T15:48:51;4.80;;;1.30;;
73909;SDS011;62245;48.070;7.874;2024-03-23T15:51:16;9.63;;;2.87;;
73909;SDS011;62245;48.070;7.874;2024-03-23T15:53:43;3.08;;;1.20;;
73909;SDS011;62245;48.070;7.874;2024-03-23T15:56:08;3.70;;;1.20;;
73909;SDS011;62245;48.070;7.874;2024-03-23T15:58:34;4.10;;;1.05;;
73909;SDS011;62245;48.070;7.874;2024-03-23T16:01:00;6.05;;;1.35;;
73909;SDS011;62245;48.070;7.874;2024-03-23T16:03:31;3.13;;;1.13;;